San Diego, California
Traffic Map
Current Weather Conditions
San Diego, California
Broken Clouds
Broken Clouds
20°
Feels Like: 20°
Wind Chill: 20° Ceiling: 1400
Heat Index: 20° Visibility: 10mi
Dew Point: 17° Wind: 8mph
Humidity: 83% Direction: 170° (S)
Pressure: 29.79in Gusts: 0mph
Raw Report DataKSAN 011208Z 17007KT 10SM BKN014 20/17 A2979 RMK AO2
Traffic Incident Summary
Active as of:
Severity:
Category:
InformationThere was an issue retrieving the traffic information for this location. Please try a different location or try again shortly.
Advertisements
Track Severe Weather on mobile